sensor_id;sensor_type;location;lat;lon;timestamp;pressure;altitude;pressure_sealevel;temperature;humidity
39295;BME280;52361;52.100;5.248;2022-12-11T00:01:31;101049.0;;;3.57;100.0
39295;BME280;52361;52.100;5.248;2022-12-11T00:03:08;101052.0;;;3.62;100.0
39295;BME280;52361;52.100;5.248;2022-12-11T00:04:44;101045.0;;;3.6;100.0
39295;BME280;52361;52.100;5.248;2022-12-11T00:07:58;101046.0;;;3.68;100.0
39295;BME280;52361;52.100;5.248;2022-12-11T00:09:35;101049.0;;;3.57;100.0
39295;BME280;52361;52.100;5.248;2022-12-11T00:11:12;101046.0;;;3.56;100.0
39295;BME280;52361;52.100;5.248;2022-12-11T00:14:26;101049.0;;;3.64;100.0
39295;BME280;52361;52.100;5.248;2022-12-11T00:16:02;101052.0;;;3.6;100.0
39295;BME280;52361;52.100;5.248;2022-12-11T00:17:39;101049.0;;;3.55;100.0
39295;BME280;52361;52.100;5.248;2022-12-11T00:20:52;101053.0;;;3.66;100.0
39295;BME280;52361;52.100;5.248;2022-12-11T00:22:29;101050.0;;;3.62;100.0
39295;BME280;52361;52.100;5.248;2022-12-11T00:24:06;101056.0;;;3.63;100.0
39295;BME280;52361;52.100;5.248;2022-12-11T00:25:44;101058.0;;;3.64;100.0
39295;BME280;52361;52.100;5.248;2022-12-11T00:28:59;101056.0;;;3.79;100.0
39295;BME280;52361;52.100;5.248;2022-12-11T00:30:37;101055.0;;;3.82;100.0
39295;BME280;52361;52.100;5.248;2022-12-11T00:32:15;101055.0;;;3.62;100.0
39295;BME280;52361;52.100;5.248;2022-12-11T00:35:27;101056.0;;;3.73;100.0
39295;BME280;52361;52.100;5.248;2022-12-11T00:37:03;101050.0;;;3.81;100.0
39295;BME280;52361;52.100;5.248;2022-12-11T00:38:40;101057.0;;;3.73;100.0
39295;BME280;52361;52.100;5.248;2022-12-11T00:41:53;101050.0;;;3.75;100.0
39295;BME280;52361;52.100;5.248;2022-12-11T00:43:29;101049.0;;;3.74;100.0
39295;BME280;52361;52.100;5.248;2022-12-11T00:45:06;101045.0;;;3.8;100.0
39295;BME280;52361;52.100;5.248;2022-12-11T00:46:42;101042.0;;;3.78;100.0
39295;BME280;52361;52.100;5.248;2022-12-11T00:49:55;101044.0;;;3.8;100.0
39295;BME280;52361;52.100;5.248;2022-12-11T00:51:31;101047.0;;;3.88;100.0
39295;BME280;52361;52.100;5.248;2022-12-11T00:53:07;101048.0;;;3.93;100.0
39295;BME280;52361;52.100;5.248;2022-12-11T00:56:21;101048.0;;;3.88;100.0
39295;BME280;52361;52.100;5.248;2022-12-11T00:57:58;101044.0;;;3.82;100.0
39295;BME280;52361;52.100;5.248;2022-12-11T00:59:35;101040.0;;;3.78;100.0
39295;BME280;52361;52.100;5.248;2022-12-11T01:02:51;101035.0;;;3.84;100.0
39295;BME280;52361;52.100;5.248;2022-12-11T01:04:27;101040.0;;;3.7;100.0
39295;BME280;52361;52.100;5.248;2022-12-11T01:06:04;101030.0;;;3.59;100.0
39295;BME280;52361;52.100;5.248;2022-12-11T01:07:42;101033.0;;;3.71;100.0
39295;BME280;52361;52.100;5.248;2022-12-11T01:12:11;101027.0;;;3.76;100.0
39295;BME280;52361;52.100;5.248;2022-12-11T01:13:47;101027.0;;;3.78;100.0
39295;BME280;52361;52.100;5.248;2022-12-11T01:17:03;101024.0;;;3.63;100.0
39295;BME280;52361;52.100;5.248;2022-12-11T01:18:39;101030.0;;;3.65;100.0
39295;BME280;52361;52.100;5.248;2022-12-11T01:20:16;101025.0;;;3.59;100.0
39295;BME280;52361;52.100;5.248;2022-12-11T01:23:31;101030.0;;;3.57;100.0
39295;BME280;52361;52.100;5.248;2022-12-11T01:25:09;101034.0;;;3.6;100.0
39295;BME280;52361;52.100;5.248;2022-12-11T01:26:45;101034.0;;;3.65;100.0
39295;BME280;52361;52.100;5.248;2022-12-11T01:29:58;101028.0;;;3.74;100.0
39295;BME280;52361;52.100;5.248;2022-12-11T01:31:34;101025.0;;;3.68;100.0
39295;BME280;52361;52.100;5.248;2022-12-11T01:33:10;101026.0;;;3.75;100.0
39295;BME280;52361;52.100;5.248;2022-12-11T01:34:48;101034.0;;;3.78;100.0
39295;BME280;52361;52.100;5.248;2022-12-11T01:38:02;101027.0;;;3.77;100.0
39295;BME280;52361;52.100;5.248;2022-12-11T01:39:38;101032.0;;;3.77;100.0
39295;BME280;52361;52.100;5.248;2022-12-11T01:41:16;101030.0;;;3.71;100.0
39295;BME280;52361;52.100;5.248;2022-12-11T01:45:21;101034.0;;;3.8;100.0
39295;BME280;52361;52.100;5.248;2022-12-11T01:46:59;101033.0;;;3.81;100.0
39295;BME280;52361;52.100;5.248;2022-12-11T01:48:36;101037.0;;;3.82;100.0
39295;BME280;52361;52.100;5.248;2022-12-11T01:50:13;101037.0;;;3.74;100.0
39295;BME280;52361;52.100;5.248;2022-12-11T01:51:52;101039.0;;;3.79;100.0
39295;BME280;52361;52.100;5.248;2022-12-11T01:53:39;101034.0;;;3.9;100.0
39295;BME280;52361;52.100;5.248;2022-12-11T01:57:02;101035.0;;;3.93;100.0
39295;BME280;52361;52.100;5.248;2022-12-11T01:58:43;101032.0;;;3.96;100.0
39295;BME280;52361;52.100;5.248;2022-12-11T02:00:22;101030.0;;;3.93;100.0
39295;BME280;52361;52.100;5.248;2022-12-11T02:02:02;101028.0;;;3.93;100.0
39295;BME280;52361;52.100;5.248;2022-12-11T02:05:18;101025.0;;;3.85;100.0
39295;BME280;52361;52.100;5.248;2022-12-11T02:06:54;101021.0;;;3.84;100.0
39295;BME280;52361;52.100;5.248;2022-12-11T02:08:31;101018.0;;;3.89;100.0
39295;BME280;52361;52.100;5.248;2022-12-11T02:11:55;101015.0;;;3.83;100.0
39295;BME280;52361;52.100;5.248;2022-12-11T02:13:39;101011.0;;;3.83;100.0
39295;BME280;52361;52.100;5.248;2022-12-11T02:15:30;101012.0;;;3.89;100.0
39295;BME280;52361;52.100;5.248;2022-12-11T02:17:12;101011.0;;;3.92;100.0
39295;BME280;52361;52.100;5.248;2022-12-11T02:18:54;101010.0;;;3.86;100.0
39295;BME280;52361;52.100;5.248;2022-12-11T02:22:25;101017.0;;;3.87;100.0
39295;BME280;52361;52.100;5.248;2022-12-11T02:24:27;101015.0;;;3.9;100.0
39295;BME280;52361;52.100;5.248;2022-12-11T02:26:36;101007.0;;;3.92;100.0
39295;BME280;52361;52.100;5.248;2022-12-11T02:28:23;101013.0;;;3.94;100.0
39295;BME280;52361;52.100;5.248;2022-12-11T02:30:06;101007.0;;;3.93;100.0
39295;BME280;52361;52.100;5.248;2022-12-11T02:31:45;101006.0;;;3.98;100.0
39295;BME280;52361;52.100;5.248;2022-12-11T02:33:30;101001.0;;;4.09;100.0
39295;BME280;52361;52.100;5.248;2022-12-11T02:36:59;100997.0;;;4.1;100.0
39295;BME280;52361;52.100;5.248;2022-12-11T02:40:22;100998.0;;;3.99;100.0
39295;BME280;52361;52.100;5.248;2022-12-11T02:42:03;100995.0;;;4.03;100.0
39295;BME280;52361;52.100;5.248;2022-12-11T02:45:18;100989.0;;;4.12;100.0
39295;BME280;52361;52.100;5.248;2022-12-11T02:46:58;100990.0;;;4.08;100.0
39295;BME280;52361;52.100;5.248;2022-12-11T02:48:36;100993.0;;;4.1;100.0
39295;BME280;52361;52.100;5.248;2022-12-11T02:50:18;100992.0;;;4.1;100.0
39295;BME280;52361;52.100;5.248;2022-12-11T02:53:39;100992.0;;;3.99;100.0
39295;BME280;52361;52.100;5.248;2022-12-11T02:55:17;100992.0;;;4.03;100.0
39295;BME280;52361;52.100;5.248;2022-12-11T02:57:00;100992.0;;;3.97;100.0
39295;BME280;52361;52.100;5.248;2022-12-11T02:58:42;100991.0;;;3.95;100.0
39295;BME280;52361;52.100;5.248;2022-12-11T03:01:59;100992.0;;;3.89;100.0
39295;BME280;52361;52.100;5.248;2022-12-11T03:03:36;100991.0;;;4.01;100.0
39295;BME280;52361;52.100;5.248;2022-12-11T03:05:13;100989.0;;;3.91;100.0
39295;BME280;52361;52.100;5.248;2022-12-11T03:06:53;100993.0;;;3.93;100.0
39295;BME280;52361;52.100;5.248;2022-12-11T03:10:16;100984.0;;;3.89;100.0
39295;BME280;52361;52.100;5.248;2022-12-11T03:11:54;100980.0;;;3.87;100.0
39295;BME280;52361;52.100;5.248;2022-12-11T03:13:30;100983.0;;;3.89;100.0
39295;BME280;52361;52.100;5.248;2022-12-11T03:15:11;100991.0;;;3.85;100.0
39295;BME280;52361;52.100;5.248;2022-12-11T03:18:39;100990.0;;;4.0;100.0
39295;BME280;52361;52.100;5.248;2022-12-11T03:20:26;100991.0;;;3.97;100.0
39295;BME280;52361;52.100;5.248;2022-12-11T03:22:11;100988.0;;;4.04;100.0
39295;BME280;52361;52.100;5.248;2022-12-11T03:23:56;100989.0;;;4.0;100.0
39295;BME280;52361;52.100;5.248;2022-12-11T03:25:40;100991.0;;;4.03;100.0
39295;BME280;52361;52.100;5.248;2022-12-11T03:29:15;100990.0;;;3.92;100.0
39295;BME280;52361;52.100;5.248;2022-12-11T03:30:55;100989.0;;;3.94;100.0
39295;BME280;52361;52.100;5.248;2022-12-11T03:32:37;100987.0;;;4.05;100.0
39295;BME280;52361;52.100;5.248;2022-12-11T03:34:18;100994.0;;;3.96;100.0
39295;BME280;52361;52.100;5.248;2022-12-11T03:37:41;100990.0;;;3.96;100.0
39295;BME280;52361;52.100;5.248;2022-12-11T03:39:24;100995.0;;;4.12;100.0
39295;BME280;52361;52.100;5.248;2022-12-11T03:41:03;100989.0;;;4.03;100.0
39295;BME280;52361;52.100;5.248;2022-12-11T03:42:45;100992.0;;;4.07;100.0
39295;BME280;52361;52.100;5.248;2022-12-11T03:44:26;100991.0;;;4.04;100.0
39295;BME280;52361;52.100;5.248;2022-12-11T03:47:45;100992.0;;;4.0;100.0
39295;BME280;52361;52.100;5.248;2022-12-11T03:49:26;100989.0;;;4.05;100.0
39295;BME280;52361;52.100;5.248;2022-12-11T03:51:05;100987.0;;;4.14;100.0
39295;BME280;52361;52.100;5.248;2022-12-11T03:54:23;100982.0;;;4.26;100.0
39295;BME280;52361;52.100;5.248;2022-12-11T03:56:01;100983.0;;;4.2;100.0
39295;BME280;52361;52.100;5.248;2022-12-11T03:57:39;100983.0;;;4.1;100.0
39295;BME280;52361;52.100;5.248;2022-12-11T03:59:16;100981.0;;;4.04;100.0
39295;BME280;52361;52.100;5.248;2022-12-11T04:02:28;100987.0;;;4.16;100.0
39295;BME280;52361;52.100;5.248;2022-12-11T04:04:04;100985.0;;;4.12;100.0
39295;BME280;52361;52.100;5.248;2022-12-11T04:05:42;100985.0;;;4.14;100.0
39295;BME280;52361;52.100;5.248;2022-12-11T04:08:56;100984.0;;;4.13;100.0
39295;BME280;52361;52.100;5.248;2022-12-11T04:10:32;100991.0;;;4.16;100.0
39295;BME280;52361;52.100;5.248;2022-12-11T04:12:08;100982.0;;;4.16;100.0
39295;BME280;52361;52.100;5.248;2022-12-11T04:13:44;100984.0;;;4.12;100.0
39295;BME280;52361;52.100;5.248;2022-12-11T04:16:59;100980.0;;;4.21;100.0
39295;BME280;52361;52.100;5.248;2022-12-11T04:24:28;100978.0;;;4.12;100.0
39295;BME280;52361;52.100;5.248;2022-12-11T04:26:07;100972.0;;;4.25;100.0
39295;BME280;52361;52.100;5.248;2022-12-11T04:27:52;100972.0;;;4.13;100.0
39295;BME280;52361;52.100;5.248;2022-12-11T04:29:28;100972.0;;;4.13;100.0
39295;BME280;52361;52.100;5.248;2022-12-11T04:31:05;100964.0;;;3.97;100.0
39295;BME280;52361;52.100;5.248;2022-12-11T04:32:41;100969.0;;;4.03;100.0
39295;BME280;52361;52.100;5.248;2022-12-11T04:35:56;100962.0;;;4.0;100.0
39295;BME280;52361;52.100;5.248;2022-12-11T04:37:33;100966.0;;;3.93;100.0
39295;BME280;52361;52.100;5.248;2022-12-11T04:39:10;100962.0;;;3.97;100.0
39295;BME280;52361;52.100;5.248;2022-12-11T04:42:22;100961.0;;;3.95;100.0
39295;BME280;52361;52.100;5.248;2022-12-11T04:43:58;100962.0;;;3.94;100.0
39295;BME280;52361;52.100;5.248;2022-12-11T04:45:34;100956.0;;;3.86;100.0
39295;BME280;52361;52.100;5.248;2022-12-11T04:47:11;100953.0;;;3.96;100.0
39295;BME280;52361;52.100;5.248;2022-12-11T04:50:24;100951.0;;;3.81;100.0
39295;BME280;52361;52.100;5.248;2022-12-11T04:52:01;100955.0;;;3.88;100.0
39295;BME280;52361;52.100;5.248;2022-12-11T04:53:38;100960.0;;;3.93;100.0
39295;BME280;52361;52.100;5.248;2022-12-11T04:56:50;100956.0;;;3.8;100.0
39295;BME280;52361;52.100;5.248;2022-12-11T04:58:26;100958.0;;;3.87;100.0
39295;BME280;52361;52.100;5.248;2022-12-11T05:00:06;100955.0;;;3.77;100.0
39295;BME280;52361;52.100;5.248;2022-12-11T05:03:22;100961.0;;;3.82;100.0
39295;BME280;52361;52.100;5.248;2022-12-11T05:04:59;100964.0;;;3.88;100.0
39295;BME280;52361;52.100;5.248;2022-12-11T05:06:35;100965.0;;;3.93;100.0
39295;BME280;52361;52.100;5.248;2022-12-11T05:08:11;100968.0;;;3.93;100.0
39295;BME280;52361;52.100;5.248;2022-12-11T05:11:23;100967.0;;;3.96;100.0
39295;BME280;52361;52.100;5.248;2022-12-11T05:13:00;100964.0;;;3.93;100.0
39295;BME280;52361;52.100;5.248;2022-12-11T05:14:36;100965.0;;;3.9;100.0
39295;BME280;52361;52.100;5.248;2022-12-11T05:17:53;100970.0;;;3.82;100.0
39295;BME280;52361;52.100;5.248;2022-12-11T05:19:28;100961.0;;;3.87;100.0
39295;BME280;52361;52.100;5.248;2022-12-11T05:21:06;100962.0;;;3.88;100.0
39295;BME280;52361;52.100;5.248;2022-12-11T05:22:45;100963.0;;;3.88;100.0
39295;BME280;52361;52.100;5.248;2022-12-11T05:25:59;100962.0;;;3.88;100.0
39295;BME280;52361;52.100;5.248;2022-12-11T05:27:37;100959.0;;;3.92;100.0
39295;BME280;52361;52.100;5.248;2022-12-11T05:29:14;100962.0;;;4.03;100.0
39295;BME280;52361;52.100;5.248;2022-12-11T05:32:31;100956.0;;;3.94;100.0
39295;BME280;52361;52.100;5.248;2022-12-11T05:34:07;100959.0;;;3.88;100.0
39295;BME280;52361;52.100;5.248;2022-12-11T05:35:46;100949.0;;;3.83;100.0
39295;BME280;52361;52.100;5.248;2022-12-11T05:37:22;100955.0;;;3.91;100.0
39295;BME280;52361;52.100;5.248;2022-12-11T05:40:37;100951.0;;;3.86;100.0
39295;BME280;52361;52.100;5.248;2022-12-11T05:42:13;100951.0;;;3.82;100.0
39295;BME280;52361;52.100;5.248;2022-12-11T05:43:50;100958.0;;;3.82;100.0
39295;BME280;52361;52.100;5.248;2022-12-11T05:47:03;100957.0;;;3.86;100.0
39295;BME280;52361;52.100;5.248;2022-12-11T05:48:40;100959.0;;;3.93;100.0
39295;BME280;52361;52.100;5.248;2022-12-11T05:53:29;100955.0;;;3.86;100.0
39295;BME280;52361;52.100;5.248;2022-12-11T05:55:07;100949.0;;;3.84;100.0
39295;BME280;52361;52.100;5.248;2022-12-11T05:56:44;100946.0;;;3.82;100.0
39295;BME280;52361;52.100;5.248;2022-12-11T05:58:22;100943.0;;;3.88;100.0
39295;BME280;52361;52.100;5.248;2022-12-11T06:01:36;100941.0;;;3.82;100.0
39295;BME280;52361;52.100;5.248;2022-12-11T06:03:13;100947.0;;;3.75;100.0
39295;BME280;52361;52.100;5.248;2022-12-11T06:04:50;100946.0;;;3.84;100.0
39295;BME280;52361;52.100;5.248;2022-12-11T06:08:04;100952.0;;;3.95;100.0
39295;BME280;52361;52.100;5.248;2022-12-11T06:09:41;100951.0;;;3.96;100.0
39295;BME280;52361;52.100;5.248;2022-12-11T06:11:18;100950.0;;;3.94;100.0
39295;BME280;52361;52.100;5.248;2022-12-11T06:12:54;100949.0;;;3.98;100.0
39295;BME280;52361;52.100;5.248;2022-12-11T06:16:08;100951.0;;;4.03;100.0
39295;BME280;52361;52.100;5.248;2022-12-11T06:17:45;100951.0;;;3.8;100.0
39295;BME280;52361;52.100;5.248;2022-12-11T06:19:21;100947.0;;;3.86;100.0
39295;BME280;52361;52.100;5.248;2022-12-11T06:22:35;100952.0;;;3.83;100.0
39295;BME280;52361;52.100;5.248;2022-12-11T06:24:11;100948.0;;;3.95;100.0
39295;BME280;52361;52.100;5.248;2022-12-11T06:25:47;100951.0;;;3.88;100.0
39295;BME280;52361;52.100;5.248;2022-12-11T06:28:59;100950.0;;;3.93;100.0
39295;BME280;52361;52.100;5.248;2022-12-11T06:30:37;100950.0;;;4.03;100.0
39295;BME280;52361;52.100;5.248;2022-12-11T06:32:14;100946.0;;;3.88;100.0
39295;BME280;52361;52.100;5.248;2022-12-11T06:33:50;100950.0;;;3.88;100.0
39295;BME280;52361;52.100;5.248;2022-12-11T06:37:02;100956.0;;;3.86;100.0
39295;BME280;52361;52.100;5.248;2022-12-11T06:38:39;100953.0;;;3.94;100.0
39295;BME280;52361;52.100;5.248;2022-12-11T06:40:16;100956.0;;;3.94;100.0
39295;BME280;52361;52.100;5.248;2022-12-11T06:43:30;100957.0;;;3.88;100.0
39295;BME280;52361;52.100;5.248;2022-12-11T06:45:07;100960.0;;;3.92;100.0
39295;BME280;52361;52.100;5.248;2022-12-11T06:46:44;100958.0;;;3.77;100.0
39295;BME280;52361;52.100;5.248;2022-12-11T06:49:56;100966.0;;;3.79;100.0
39295;BME280;52361;52.100;5.248;2022-12-11T06:51:33;100961.0;;;3.84;100.0
39295;BME280;52361;52.100;5.248;2022-12-11T06:53:10;100961.0;;;3.86;100.0
39295;BME280;52361;52.100;5.248;2022-12-11T06:54:48;100966.0;;;3.88;100.0
39295;BME280;52361;52.100;5.248;2022-12-11T06:58:00;100965.0;;;3.92;100.0
39295;BME280;52361;52.100;5.248;2022-12-11T06:59:37;100965.0;;;3.74;100.0
39295;BME280;52361;52.100;5.248;2022-12-11T07:02:52;100966.0;;;3.82;100.0
39295;BME280;52361;52.100;5.248;2022-12-11T07:04:29;100962.0;;;3.9;100.0
39295;BME280;52361;52.100;5.248;2022-12-11T07:06:06;100964.0;;;3.85;100.0
39295;BME280;52361;52.100;5.248;2022-12-11T07:07:43;100969.0;;;3.75;100.0
39295;BME280;52361;52.100;5.248;2022-12-11T07:11:01;100974.0;;;3.69;100.0
39295;BME280;52361;52.100;5.248;2022-12-11T07:12:38;100969.0;;;3.68;100.0
39295;BME280;52361;52.100;5.248;2022-12-11T07:14:14;100973.0;;;3.79;100.0
39295;BME280;52361;52.100;5.248;2022-12-11T07:15:51;100974.0;;;3.83;100.0
39295;BME280;52361;52.100;5.248;2022-12-11T07:19:04;100974.0;;;3.74;100.0
39295;BME280;52361;52.100;5.248;2022-12-11T07:20:40;100977.0;;;3.77;100.0
39295;BME280;52361;52.100;5.248;2022-12-11T07:22:16;100976.0;;;3.66;100.0
39295;BME280;52361;52.100;5.248;2022-12-11T07:25:29;100976.0;;;3.75;100.0
39295;BME280;52361;52.100;5.248;2022-12-11T07:27:05;100977.0;;;3.71;100.0
39295;BME280;52361;52.100;5.248;2022-12-11T07:28:42;100976.0;;;3.75;100.0
39295;BME280;52361;52.100;5.248;2022-12-11T07:30:18;100977.0;;;3.79;100.0
39295;BME280;52361;52.100;5.248;2022-12-11T07:33:31;100980.0;;;3.88;100.0
39295;BME280;52361;52.100;5.248;2022-12-11T07:35:08;100980.0;;;3.86;100.0
39295;BME280;52361;52.100;5.248;2022-12-11T07:36:44;100983.0;;;3.81;100.0
39295;BME280;52361;52.100;5.248;2022-12-11T07:39:57;100989.0;;;3.75;100.0
39295;BME280;52361;52.100;5.248;2022-12-11T07:41:34;100980.0;;;3.81;100.0
39295;BME280;52361;52.100;5.248;2022-12-11T07:43:10;100980.0;;;3.7;100.0
39295;BME280;52361;52.100;5.248;2022-12-11T07:46:25;100978.0;;;3.65;100.0
39295;BME280;52361;52.100;5.248;2022-12-11T07:48:03;100982.0;;;3.73;100.0
39295;BME280;52361;52.100;5.248;2022-12-11T07:49:40;100982.0;;;3.77;100.0
39295;BME280;52361;52.100;5.248;2022-12-11T07:51:18;100983.0;;;3.76;100.0
39295;BME280;52361;52.100;5.248;2022-12-11T07:54:31;100983.0;;;3.81;100.0
39295;BME280;52361;52.100;5.248;2022-12-11T07:56:08;100987.0;;;3.71;100.0
39295;BME280;52361;52.100;5.248;2022-12-11T07:57:44;100992.0;;;3.74;100.0
39295;BME280;52361;52.100;5.248;2022-12-11T08:00:57;100989.0;;;3.72;100.0
39295;BME280;52361;52.100;5.248;2022-12-11T08:02:33;100994.0;;;3.73;100.0
39295;BME280;52361;52.100;5.248;2022-12-11T08:04:11;100997.0;;;3.68;100.0
39295;BME280;52361;52.100;5.248;2022-12-11T08:07:24;100996.0;;;3.61;100.0
39295;BME280;52361;52.100;5.248;2022-12-11T08:09:02;101001.0;;;3.64;100.0
39295;BME280;52361;52.100;5.248;2022-12-11T08:10:39;101002.0;;;3.56;100.0
39295;BME280;52361;52.100;5.248;2022-12-11T08:12:16;101007.0;;;3.53;100.0
39295;BME280;52361;52.100;5.248;2022-12-11T08:15:29;101006.0;;;3.65;100.0
39295;BME280;52361;52.100;5.248;2022-12-11T08:17:05;101005.0;;;3.6;100.0
39295;BME280;52361;52.100;5.248;2022-12-11T08:18:42;101002.0;;;3.61;100.0
39295;BME280;52361;52.100;5.248;2022-12-11T08:21:56;101002.0;;;3.54;100.0
39295;BME280;52361;52.100;5.248;2022-12-11T08:23:32;101003.0;;;3.46;100.0
39295;BME280;52361;52.100;5.248;2022-12-11T08:25:09;101002.0;;;3.46;100.0
39295;BME280;52361;52.100;5.248;2022-12-11T08:26:46;100999.0;;;3.46;100.0
39295;BME280;52361;52.100;5.248;2022-12-11T08:30:00;101002.0;;;3.53;100.0
39295;BME280;52361;52.100;5.248;2022-12-11T08:31:36;100997.0;;;3.39;100.0
39295;BME280;52361;52.100;5.248;2022-12-11T08:33:14;100995.0;;;3.41;100.0
39295;BME280;52361;52.100;5.248;2022-12-11T08:36:26;100998.0;;;3.4;100.0
39295;BME280;52361;52.100;5.248;2022-12-11T08:38:03;100996.0;;;3.49;100.0
39295;BME280;52361;52.100;5.248;2022-12-11T08:39:40;100998.0;;;3.5;100.0
39295;BME280;52361;52.100;5.248;2022-12-11T08:42:55;100997.0;;;3.56;100.0
39295;BME280;52361;52.100;5.248;2022-12-11T08:44:31;100995.0;;;3.44;100.0
39295;BME280;52361;52.100;5.248;2022-12-11T08:46:08;100992.0;;;3.38;100.0
39295;BME280;52361;52.100;5.248;2022-12-11T08:47:44;100992.0;;;3.53;100.0
39295;BME280;52361;52.100;5.248;2022-12-11T08:50:58;100985.0;;;3.57;100.0
39295;BME280;52361;52.100;5.248;2022-12-11T08:52:35;100984.0;;;3.44;100.0
39295;BME280;52361;52.100;5.248;2022-12-11T08:54:11;100986.0;;;3.38;100.0
39295;BME280;52361;52.100;5.248;2022-12-11T08:57:24;100983.0;;;3.34;100.0
39295;BME280;52361;52.100;5.248;2022-12-11T08:59:00;100981.0;;;3.43;100.0
39295;BME280;52361;52.100;5.248;2022-12-11T09:00:37;100982.0;;;3.46;100.0
39295;BME280;52361;52.100;5.248;2022-12-11T09:03:51;100977.0;;;3.4;100.0
39295;BME280;52361;52.100;5.248;2022-12-11T09:05:28;100975.0;;;3.37;100.0
39295;BME280;52361;52.100;5.248;2022-12-11T09:07:04;100972.0;;;3.4;100.0
39295;BME280;52361;52.100;5.248;2022-12-11T09:08:41;100976.0;;;3.4;100.0
39295;BME280;52361;52.100;5.248;2022-12-11T09:11:55;100972.0;;;3.44;100.0
39295;BME280;52361;52.100;5.248;2022-12-11T09:13:32;100970.0;;;3.47;100.0
39295;BME280;52361;52.100;5.248;2022-12-11T09:15:10;100970.0;;;3.45;100.0
39295;BME280;52361;52.100;5.248;2022-12-11T09:18:22;100973.0;;;3.37;100.0
39295;BME280;52361;52.100;5.248;2022-12-11T09:21:35;100975.0;;;3.66;100.0
39295;BME280;52361;52.100;5.248;2022-12-11T09:24:47;100975.0;;;3.56;100.0
39295;BME280;52361;52.100;5.248;2022-12-11T09:26:24;100976.0;;;3.62;100.0
39295;BME280;52361;52.100;5.248;2022-12-11T09:28:01;100976.0;;;3.63;100.0
39295;BME280;52361;52.100;5.248;2022-12-11T09:29:38;100966.0;;;3.72;100.0
39295;BME280;52361;52.100;5.248;2022-12-11T09:32:54;100968.0;;;3.72;100.0
39295;BME280;52361;52.100;5.248;2022-12-11T09:34:30;100971.0;;;3.68;100.0
39295;BME280;52361;52.100;5.248;2022-12-11T09:36:07;100974.0;;;3.71;100.0
39295;BME280;52361;52.100;5.248;2022-12-11T09:39:20;100972.0;;;3.61;100.0
39295;BME280;52361;52.100;5.248;2022-12-11T09:40:55;100977.0;;;3.58;100.0
39295;BME280;52361;52.100;5.248;2022-12-11T09:42:42;100969.0;;;3.58;100.0
39295;BME280;52361;52.100;5.248;2022-12-11T09:44:31;100966.0;;;3.72;100.0
39295;BME280;52361;52.100;5.248;2022-12-11T09:47:54;100966.0;;;3.84;100.0
39295;BME280;52361;52.100;5.248;2022-12-11T09:49:36;100971.0;;;3.63;100.0
39295;BME280;52361;52.100;5.248;2022-12-11T09:51:20;100970.0;;;3.84;100.0
39295;BME280;52361;52.100;5.248;2022-12-11T09:54:54;100958.0;;;3.97;100.0
39295;BME280;52361;52.100;5.248;2022-12-11T09:58:22;100959.0;;;3.96;100.0
39295;BME280;52361;52.100;5.248;2022-12-11T10:00:13;100955.0;;;3.97;100.0
39295;BME280;52361;52.100;5.248;2022-12-11T10:01:54;100952.0;;;3.96;100.0
39295;BME280;52361;52.100;5.248;2022-12-11T10:03:50;100952.0;;;3.99;100.0
39295;BME280;52361;52.100;5.248;2022-12-11T10:05:35;100946.0;;;3.92;100.0
39295;BME280;52361;52.100;5.248;2022-12-11T10:10:59;100958.0;;;3.79;100.0
39295;BME280;52361;52.100;5.248;2022-12-11T10:12:47;100958.0;;;3.87;100.0
39295;BME280;52361;52.100;5.248;2022-12-11T10:14:36;100963.0;;;4.0;100.0
39295;BME280;52361;52.100;5.248;2022-12-11T10:16:24;100965.0;;;3.9;100.0
39295;BME280;52361;52.100;5.248;2022-12-11T10:18:10;100958.0;;;4.01;100.0
39295;BME280;52361;52.100;5.248;2022-12-11T10:19:50;100962.0;;;3.83;100.0
39295;BME280;52361;52.100;5.248;2022-12-11T10:23:17;100959.0;;;3.96;100.0
39295;BME280;52361;52.100;5.248;2022-12-11T10:24:57;100953.0;;;4.1;100.0
39295;BME280;52361;52.100;5.248;2022-12-11T10:26:37;100953.0;;;3.87;100.0
39295;BME280;52361;52.100;5.248;2022-12-11T10:31:42;100946.0;;;4.13;100.0
39295;BME280;52361;52.100;5.248;2022-12-11T10:33:30;100949.0;;;4.26;100.0
39295;BME280;52361;52.100;5.248;2022-12-11T10:35:17;100945.0;;;4.18;100.0
39295;BME280;52361;52.100;5.248;2022-12-11T10:36:54;100946.0;;;4.18;100.0
39295;BME280;52361;52.100;5.248;2022-12-11T10:40:17;100949.0;;;4.04;100.0
39295;BME280;52361;52.100;5.248;2022-12-11T10:41:55;100942.0;;;4.14;100.0
39295;BME280;52361;52.100;5.248;2022-12-11T10:43:34;100939.0;;;4.16;100.0
39295;BME280;52361;52.100;5.248;2022-12-11T10:45:14;100945.0;;;4.18;100.0
39295;BME280;52361;52.100;5.248;2022-12-11T10:48:44;100943.0;;;4.12;100.0
39295;BME280;52361;52.100;5.248;2022-12-11T10:50:23;100940.0;;;4.16;100.0
39295;BME280;52361;52.100;5.248;2022-12-11T10:52:01;100939.0;;;4.16;100.0
39295;BME280;52361;52.100;5.248;2022-12-11T10:53:49;100940.0;;;4.24;100.0
39295;BME280;52361;52.100;5.248;2022-12-11T10:55:28;100940.0;;;4.32;100.0
39295;BME280;52361;52.100;5.248;2022-12-11T10:58:47;100939.0;;;4.32;100.0
39295;BME280;52361;52.100;5.248;2022-12-11T11:02:18;100937.0;;;4.25;100.0
39295;BME280;52361;52.100;5.248;2022-12-11T11:03:58;100935.0;;;4.28;100.0
39295;BME280;52361;52.100;5.248;2022-12-11T11:07:18;100936.0;;;4.28;100.0
39295;BME280;52361;52.100;5.248;2022-12-11T11:08:57;100927.0;;;4.32;100.0
39295;BME280;52361;52.100;5.248;2022-12-11T11:10:35;100930.0;;;4.43;100.0
39295;BME280;52361;52.100;5.248;2022-12-11T11:12:21;100927.0;;;4.45;100.0
39295;BME280;52361;52.100;5.248;2022-12-11T11:15:59;100928.0;;;4.45;100.0
39295;BME280;52361;52.100;5.248;2022-12-11T11:19:22;100926.0;;;4.38;100.0
39295;BME280;52361;52.100;5.248;2022-12-11T11:21:00;100918.0;;;4.43;100.0
39295;BME280;52361;52.100;5.248;2022-12-11T11:22:38;100920.0;;;4.46;100.0
39295;BME280;52361;52.100;5.248;2022-12-11T11:26:06;100919.0;;;4.59;100.0
39295;BME280;52361;52.100;5.248;2022-12-11T11:27:44;100922.0;;;4.54;100.0
39295;BME280;52361;52.100;5.248;2022-12-11T11:29:28;100922.0;;;4.49;100.0
39295;BME280;52361;52.100;5.248;2022-12-11T11:31:07;100928.0;;;4.32;100.0
39295;BME280;52361;52.100;5.248;2022-12-11T11:34:30;100927.0;;;4.28;100.0
39295;BME280;52361;52.100;5.248;2022-12-11T11:36:18;100931.0;;;4.51;100.0
39295;BME280;52361;52.100;5.248;2022-12-11T11:38:01;100930.0;;;4.45;100.0